sensor_id;sensor_type;location;lat;lon;timestamp;temperature;humidity
47779;DHT22;33538;48.432;11.350;2023-04-24T00:01:50;13.90;99.90
47779;DHT22;33538;48.432;11.350;2023-04-24T00:04:16;13.90;99.90
47779;DHT22;33538;48.432;11.350;2023-04-24T00:06:43;13.80;99.90
47779;DHT22;33538;48.432;11.350;2023-04-24T00:09:10;13.80;99.90
47779;DHT22;33538;48.432;11.350;2023-04-24T00:11:37;13.80;99.90
47779;DHT22;33538;48.432;11.350;2023-04-24T00:14:04;13.80;99.90
47779;DHT22;33538;48.432;11.350;2023-04-24T00:16:31;13.80;99.90
47779;DHT22;33538;48.432;11.350;2023-04-24T00:18:59;13.80;99.90
47779;DHT22;33538;48.432;11.350;2023-04-24T00:21:26;13.80;99.90
47779;DHT22;33538;48.432;11.350;2023-04-24T00:23:53;13.80;99.90
47779;DHT22;33538;48.432;11.350;2023-04-24T00:26:19;13.80;99.90
47779;DHT22;33538;48.432;11.350;2023-04-24T00:28:46;13.70;99.90
47779;DHT22;33538;48.432;11.350;2023-04-24T00:31:13;13.70;99.90
47779;DHT22;33538;48.432;11.350;2023-04-24T00:33:40;13.70;99.90
47779;DHT22;33538;48.432;11.350;2023-04-24T00:36:08;13.60;99.90
47779;DHT22;33538;48.432;11.350;2023-04-24T00:38:34;13.60;99.90
47779;DHT22;33538;48.432;11.350;2023-04-24T00:41:01;13.60;99.90
47779;DHT22;33538;48.432;11.350;2023-04-24T00:43:28;13.60;99.90
47779;DHT22;33538;48.432;11.350;2023-04-24T00:45:55;13.60;99.90
47779;DHT22;33538;48.432;11.350;2023-04-24T00:48:23;13.60;99.90
47779;DHT22;33538;48.432;11.350;2023-04-24T00:50:50;13.60;99.90
47779;DHT22;33538;48.432;11.350;2023-04-24T00:53:18;13.60;99.90
47779;DHT22;33538;48.432;11.350;2023-04-24T00:55:45;13.60;99.90
47779;DHT22;33538;48.432;11.350;2023-04-24T00:58:13;13.60;99.90
47779;DHT22;33538;48.432;11.350;2023-04-24T01:00:39;13.50;99.90
47779;DHT22;33538;48.432;11.350;2023-04-24T01:03:06;13.50;99.90
47779;DHT22;33538;48.432;11.350;2023-04-24T01:05:34;13.40;99.90
47779;DHT22;33538;48.432;11.350;2023-04-24T01:08:01;13.40;99.90
47779;DHT22;33538;48.432;11.350;2023-04-24T01:10:31;13.40;99.90
47779;DHT22;33538;48.432;11.350;2023-04-24T01:12:59;13.50;99.90
47779;DHT22;33538;48.432;11.350;2023-04-24T01:15:26;13.40;99.90
47779;DHT22;33538;48.432;11.350;2023-04-24T01:17:53;13.40;99.90
47779;DHT22;33538;48.432;11.350;2023-04-24T01:20:20;13.40;99.90
47779;DHT22;33538;48.432;11.350;2023-04-24T01:22:48;13.40;99.90
47779;DHT22;33538;48.432;11.350;2023-04-24T01:25:15;13.30;99.90
47779;DHT22;33538;48.432;11.350;2023-04-24T01:27:42;13.30;99.90
47779;DHT22;33538;48.432;11.350;2023-04-24T01:30:10;13.30;99.90
47779;DHT22;33538;48.432;11.350;2023-04-24T01:32:37;13.30;99.90
47779;DHT22;33538;48.432;11.350;2023-04-24T01:35:06;13.30;99.90
47779;DHT22;33538;48.432;11.350;2023-04-24T01:37:33;13.30;99.90
47779;DHT22;33538;48.432;11.350;2023-04-24T01:40:01;13.30;99.90
47779;DHT22;33538;48.432;11.350;2023-04-24T01:42:28;13.30;99.90
47779;DHT22;33538;48.432;11.350;2023-04-24T01:44:55;13.30;99.90
47779;DHT22;33538;48.432;11.350;2023-04-24T01:47:23;13.30;99.90
47779;DHT22;33538;48.432;11.350;2023-04-24T01:49:50;13.20;99.90
47779;DHT22;33538;48.432;11.350;2023-04-24T01:52:17;13.20;99.90
47779;DHT22;33538;48.432;11.350;2023-04-24T01:54:44;13.20;99.80
47779;DHT22;33538;48.432;11.350;2023-04-24T01:57:13;13.30;99.60
47779;DHT22;33538;48.432;11.350;2023-04-24T01:59:41;13.30;99.30
47779;DHT22;33538;48.432;11.350;2023-04-24T02:02:08;13.30;99.20
47779;DHT22;33538;48.432;11.350;2023-04-24T02:04:35;13.30;98.90
47779;DHT22;33538;48.432;11.350;2023-04-24T02:07:02;13.30;98.90
47779;DHT22;33538;48.432;11.350;2023-04-24T02:09:28;13.30;98.70
47779;DHT22;33538;48.432;11.350;2023-04-24T02:11:55;13.30;98.60
47779;DHT22;33538;48.432;11.350;2023-04-24T02:14:23;13.40;98.50
47779;DHT22;33538;48.432;11.350;2023-04-24T02:16:50;13.30;98.50
47779;DHT22;33538;48.432;11.350;2023-04-24T02:19:16;13.30;98.40
47779;DHT22;33538;48.432;11.350;2023-04-24T02:21:43;13.30;98.10
47779;DHT22;33538;48.432;11.350;2023-04-24T02:24:10;13.30;97.80
47779;DHT22;33538;48.432;11.350;2023-04-24T02:26:37;13.30;98.00
47779;DHT22;33538;48.432;11.350;2023-04-24T02:29:03;13.30;97.60
47779;DHT22;33538;48.432;11.350;2023-04-24T02:31:31;13.30;97.50
47779;DHT22;33538;48.432;11.350;2023-04-24T02:33:58;13.30;97.70
47779;DHT22;33538;48.432;11.350;2023-04-24T02:36:25;13.30;97.70
47779;DHT22;33538;48.432;11.350;2023-04-24T02:38:52;13.30;97.80
47779;DHT22;33538;48.432;11.350;2023-04-24T02:41:18;13.20;97.70
47779;DHT22;33538;48.432;11.350;2023-04-24T02:43:45;13.30;97.80
47779;DHT22;33538;48.432;11.350;2023-04-24T02:46:12;13.20;97.80
47779;DHT22;33538;48.432;11.350;2023-04-24T02:48:40;13.20;97.80
47779;DHT22;33538;48.432;11.350;2023-04-24T02:51:07;13.20;97.80
47779;DHT22;33538;48.432;11.350;2023-04-24T02:53:34;13.20;97.80
47779;DHT22;33538;48.432;11.350;2023-04-24T02:56:00;13.20;97.80
47779;DHT22;33538;48.432;11.350;2023-04-24T02:58:27;13.10;97.60
47779;DHT22;33538;48.432;11.350;2023-04-24T03:00:54;13.20;97.80
47779;DHT22;33538;48.432;11.350;2023-04-24T03:03:21;13.20;97.70
47779;DHT22;33538;48.432;11.350;2023-04-24T03:05:49;13.20;97.50
47779;DHT22;33538;48.432;11.350;2023-04-24T03:08:16;13.10;97.50
47779;DHT22;33538;48.432;11.350;2023-04-24T03:10:43;13.10;97.50
47779;DHT22;33538;48.432;11.350;2023-04-24T03:13:13;13.10;97.50
47779;DHT22;33538;48.432;11.350;2023-04-24T03:15:39;13.10;97.60
47779;DHT22;33538;48.432;11.350;2023-04-24T03:18:06;13.10;97.70
47779;DHT22;33538;48.432;11.350;2023-04-24T03:20:33;13.10;97.90
47779;DHT22;33538;48.432;11.350;2023-04-24T03:23:01;13.00;97.80
47779;DHT22;33538;48.432;11.350;2023-04-24T03:25:28;13.10;97.50
47779;DHT22;33538;48.432;11.350;2023-04-24T03:27:54;13.10;97.60
47779;DHT22;33538;48.432;11.350;2023-04-24T03:30:21;13.10;97.50
47779;DHT22;33538;48.432;11.350;2023-04-24T03:32:48;13.10;97.30
47779;DHT22;33538;48.432;11.350;2023-04-24T03:35:14;13.10;97.30
47779;DHT22;33538;48.432;11.350;2023-04-24T03:37:41;13.10;97.30
47779;DHT22;33538;48.432;11.350;2023-04-24T03:40:10;13.10;97.20
47779;DHT22;33538;48.432;11.350;2023-04-24T03:42:37;13.10;97.40
47779;DHT22;33538;48.432;11.350;2023-04-24T03:45:06;13.10;97.50
47779;DHT22;33538;48.432;11.350;2023-04-24T03:47:33;13.00;97.50
47779;DHT22;33538;48.432;11.350;2023-04-24T03:50:00;13.10;97.60
47779;DHT22;33538;48.432;11.350;2023-04-24T03:52:26;13.00;97.60
47779;DHT22;33538;48.432;11.350;2023-04-24T03:54:53;13.00;97.60
47779;DHT22;33538;48.432;11.350;2023-04-24T03:57:21;13.00;97.50
47779;DHT22;33538;48.432;11.350;2023-04-24T03:59:48;13.00;97.60
47779;DHT22;33538;48.432;11.350;2023-04-24T04:02:15;13.00;97.70
47779;DHT22;33538;48.432;11.350;2023-04-24T04:04:41;13.00;97.90
47779;DHT22;33538;48.432;11.350;2023-04-24T04:07:09;13.00;97.80
47779;DHT22;33538;48.432;11.350;2023-04-24T04:09:35;12.90;97.80
47779;DHT22;33538;48.432;11.350;2023-04-24T04:12:02;13.00;97.90
47779;DHT22;33538;48.432;11.350;2023-04-24T04:14:30;12.90;97.80
47779;DHT22;33538;48.432;11.350;2023-04-24T04:16:57;12.90;98.00
47779;DHT22;33538;48.432;11.350;2023-04-24T04:19:24;12.90;97.90
47779;DHT22;33538;48.432;11.350;2023-04-24T04:21:50;12.90;97.60
47779;DHT22;33538;48.432;11.350;2023-04-24T04:24:17;12.90;97.70
47779;DHT22;33538;48.432;11.350;2023-04-24T04:26:44;12.90;97.70
47779;DHT22;33538;48.432;11.350;2023-04-24T04:29:11;12.90;97.60
47779;DHT22;33538;48.432;11.350;2023-04-24T04:31:39;12.90;97.60
47779;DHT22;33538;48.432;11.350;2023-04-24T04:34:06;12.90;97.90
47779;DHT22;33538;48.432;11.350;2023-04-24T04:36:33;12.90;97.70
47779;DHT22;33538;48.432;11.350;2023-04-24T04:38:59;12.90;97.60
47779;DHT22;33538;48.432;11.350;2023-04-24T04:41:26;12.90;97.50
47779;DHT22;33538;48.432;11.350;2023-04-24T04:43:53;12.90;97.50
47779;DHT22;33538;48.432;11.350;2023-04-24T04:46:19;12.80;97.50
47779;DHT22;33538;48.432;11.350;2023-04-24T04:48:48;12.90;97.40
47779;DHT22;33538;48.432;11.350;2023-04-24T04:51:14;12.90;97.40
47779;DHT22;33538;48.432;11.350;2023-04-24T04:53:41;12.80;97.40
47779;DHT22;33538;48.432;11.350;2023-04-24T04:56:08;12.80;97.60
47779;DHT22;33538;48.432;11.350;2023-04-24T04:58:35;12.80;97.60
47779;DHT22;33538;48.432;11.350;2023-04-24T05:01:01;12.80;97.60
47779;DHT22;33538;48.432;11.350;2023-04-24T05:03:28;12.80;97.40
47779;DHT22;33538;48.432;11.350;2023-04-24T05:05:57;12.80;97.50
47779;DHT22;33538;48.432;11.350;2023-04-24T05:08:24;12.80;97.50
47779;DHT22;33538;48.432;11.350;2023-04-24T05:10:53;12.80;97.40
47779;DHT22;33538;48.432;11.350;2023-04-24T05:13:20;12.80;97.40
47779;DHT22;33538;48.432;11.350;2023-04-24T05:16:04;12.70;97.60
47779;DHT22;33538;48.432;11.350;2023-04-24T05:18:31;12.70;97.50
47779;DHT22;33538;48.432;11.350;2023-04-24T05:20:59;12.80;97.50
47779;DHT22;33538;48.432;11.350;2023-04-24T05:23:26;12.70;97.40
47779;DHT22;33538;48.432;11.350;2023-04-24T05:25:52;12.80;97.30
47779;DHT22;33538;48.432;11.350;2023-04-24T05:28:19;12.70;97.30
47779;DHT22;33538;48.432;11.350;2023-04-24T05:30:46;12.70;97.40
47779;DHT22;33538;48.432;11.350;2023-04-24T05:33:12;12.80;97.70
47779;DHT22;33538;48.432;11.350;2023-04-24T05:35:40;12.80;97.60
47779;DHT22;33538;48.432;11.350;2023-04-24T05:38:08;12.80;97.40
47779;DHT22;33538;48.432;11.350;2023-04-24T05:40:35;12.80;97.40
47779;DHT22;33538;48.432;11.350;2023-04-24T05:43:01;12.80;97.40
47779;DHT22;33538;48.432;11.350;2023-04-24T05:45:28;12.80;97.20
47779;DHT22;33538;48.432;11.350;2023-04-24T05:47:55;12.80;97.30
47779;DHT22;33538;48.432;11.350;2023-04-24T05:50:22;12.80;97.30
47779;DHT22;33538;48.432;11.350;2023-04-24T05:52:48;12.90;97.10
47779;DHT22;33538;48.432;11.350;2023-04-24T05:55:17;12.80;97.50
47779;DHT22;33538;48.432;11.350;2023-04-24T05:57:44;12.80;97.60
47779;DHT22;33538;48.432;11.350;2023-04-24T06:00:11;12.90;97.40
47779;DHT22;33538;48.432;11.350;2023-04-24T06:02:38;12.80;97.50
47779;DHT22;33538;48.432;11.350;2023-04-24T06:05:06;12.80;97.60
47779;DHT22;33538;48.432;11.350;2023-04-24T06:07:32;12.90;97.60
47779;DHT22;33538;48.432;11.350;2023-04-24T06:09:59;12.90;97.60
47779;DHT22;33538;48.432;11.350;2023-04-24T06:12:27;12.90;97.60
47779;DHT22;33538;48.432;11.350;2023-04-24T06:14:54;12.90;98.00
47779;DHT22;33538;48.432;11.350;2023-04-24T06:17:21;12.90;97.80
47779;DHT22;33538;48.432;11.350;2023-04-24T06:19:48;12.90;97.90
47779;DHT22;33538;48.432;11.350;2023-04-24T06:22:15;12.90;97.90
47779;DHT22;33538;48.432;11.350;2023-04-24T06:24:41;13.00;97.80
47779;DHT22;33538;48.432;11.350;2023-04-24T06:27:08;13.00;97.70
47779;DHT22;33538;48.432;11.350;2023-04-24T06:29:36;13.00;97.70
47779;DHT22;33538;48.432;11.350;2023-04-24T06:32:03;13.00;97.70
47779;DHT22;33538;48.432;11.350;2023-04-24T06:34:30;13.00;97.80
47779;DHT22;33538;48.432;11.350;2023-04-24T06:36:57;12.90;98.00
47779;DHT22;33538;48.432;11.350;2023-04-24T06:39:23;13.00;98.00
47779;DHT22;33538;48.432;11.350;2023-04-24T06:41:50;13.00;98.10
47779;DHT22;33538;48.432;11.350;2023-04-24T06:44:17;13.00;98.10
47779;DHT22;33538;48.432;11.350;2023-04-24T06:46:45;13.00;98.10
47779;DHT22;33538;48.432;11.350;2023-04-24T06:49:12;13.00;98.10
47779;DHT22;33538;48.432;11.350;2023-04-24T06:51:38;13.00;98.00
47779;DHT22;33538;48.432;11.350;2023-04-24T06:54:05;13.00;98.00
47779;DHT22;33538;48.432;11.350;2023-04-24T06:56:32;13.00;97.90
47779;DHT22;33538;48.432;11.350;2023-04-24T06:58:59;13.00;97.90
47779;DHT22;33538;48.432;11.350;2023-04-24T07:01:25;13.00;97.80
47779;DHT22;33538;48.432;11.350;2023-04-24T07:03:54;13.00;97.80
47779;DHT22;33538;48.432;11.350;2023-04-24T07:06:21;13.00;97.70
47779;DHT22;33538;48.432;11.350;2023-04-24T07:08:47;13.00;97.80
47779;DHT22;33538;48.432;11.350;2023-04-24T07:11:14;13.00;98.00
47779;DHT22;33538;48.432;11.350;2023-04-24T07:13:41;13.00;98.00
47779;DHT22;33538;48.432;11.350;2023-04-24T07:16:08;13.10;98.00
47779;DHT22;33538;48.432;11.350;2023-04-24T07:18:35;13.00;97.90
47779;DHT22;33538;48.432;11.350;2023-04-24T07:21:03;13.00;97.80
47779;DHT22;33538;48.432;11.350;2023-04-24T07:23:30;13.00;97.90
47779;DHT22;33538;48.432;11.350;2023-04-24T07:25:57;13.00;98.10
47779;DHT22;33538;48.432;11.350;2023-04-24T07:28:23;13.10;98.10
47779;DHT22;33538;48.432;11.350;2023-04-24T07:30:50;13.10;98.00
47779;DHT22;33538;48.432;11.350;2023-04-24T07:33:17;13.10;98.10
47779;DHT22;33538;48.432;11.350;2023-04-24T07:35:44;13.10;98.00
47779;DHT22;33538;48.432;11.350;2023-04-24T07:38:12;13.10;98.00
47779;DHT22;33538;48.432;11.350;2023-04-24T07:40:38;13.10;98.00
47779;DHT22;33538;48.432;11.350;2023-04-24T07:43:05;13.10;97.90
47779;DHT22;33538;48.432;11.350;2023-04-24T07:45:32;13.10;97.90
47779;DHT22;33538;48.432;11.350;2023-04-24T07:47:59;13.10;97.90
47779;DHT22;33538;48.432;11.350;2023-04-24T07:50:26;13.10;97.90
47779;DHT22;33538;48.432;11.350;2023-04-24T07:52:52;13.10;98.00
47779;DHT22;33538;48.432;11.350;2023-04-24T07:55:20;13.10;98.10
47779;DHT22;33538;48.432;11.350;2023-04-24T07:57:51;13.00;98.10
47779;DHT22;33538;48.432;11.350;2023-04-24T08:00:18;13.00;98.20
47779;DHT22;33538;48.432;11.350;2023-04-24T08:02:45;13.00;98.10
47779;DHT22;33538;48.432;11.350;2023-04-24T08:05:12;13.00;98.10
47779;DHT22;33538;48.432;11.350;2023-04-24T08:07:39;13.00;98.20
47779;DHT22;33538;48.432;11.350;2023-04-24T08:10:07;12.90;97.20
47779;DHT22;33538;48.432;11.350;2023-04-24T08:12:35;12.80;97.70
47779;DHT22;33538;48.432;11.350;2023-04-24T08:15:02;12.70;98.00
47779;DHT22;33538;48.432;11.350;2023-04-24T08:17:29;12.60;98.20
47779;DHT22;33538;48.432;11.350;2023-04-24T08:19:58;12.70;98.20
47779;DHT22;33538;48.432;11.350;2023-04-24T08:22:25;12.60;98.20
47779;DHT22;33538;48.432;11.350;2023-04-24T08:24:51;12.50;98.10
47779;DHT22;33538;48.432;11.350;2023-04-24T08:27:18;12.50;98.80
47779;DHT22;33538;48.432;11.350;2023-04-24T08:29:46;12.50;99.30
47779;DHT22;33538;48.432;11.350;2023-04-24T08:32:13;12.40;99.50
47779;DHT22;33538;48.432;11.350;2023-04-24T08:34:40;12.40;99.70
47779;DHT22;33538;48.432;11.350;2023-04-24T08:37:07;12.50;99.60
47779;DHT22;33538;48.432;11.350;2023-04-24T08:39:33;12.50;99.50
47779;DHT22;33538;48.432;11.350;2023-04-24T08:42:01;12.60;99.40
47779;DHT22;33538;48.432;11.350;2023-04-24T08:44:28;12.60;99.40
47779;DHT22;33538;48.432;11.350;2023-04-24T08:46:56;12.60;99.30
47779;DHT22;33538;48.432;11.350;2023-04-24T08:49:24;12.70;99.20
47779;DHT22;33538;48.432;11.350;2023-04-24T08:51:52;12.70;98.90
47779;DHT22;33538;48.432;11.350;2023-04-24T08:54:19;12.80;98.50
47779;DHT22;33538;48.432;11.350;2023-04-24T08:56:48;12.80;98.40
47779;DHT22;33538;48.432;11.350;2023-04-24T08:59:15;12.90;98.20
47779;DHT22;33538;48.432;11.350;2023-04-24T09:01:43;12.90;98.10
47779;DHT22;33538;48.432;11.350;2023-04-24T09:04:14;12.90;98.00
47779;DHT22;33538;48.432;11.350;2023-04-24T09:06:42;12.90;98.20
47779;DHT22;33538;48.432;11.350;2023-04-24T09:09:10;13.00;98.00
47779;DHT22;33538;48.432;11.350;2023-04-24T09:11:37;13.00;97.90
47779;DHT22;33538;48.432;11.350;2023-04-24T09:14:04;13.00;97.70
47779;DHT22;33538;48.432;11.350;2023-04-24T09:16:31;13.00;97.70
47779;DHT22;33538;48.432;11.350;2023-04-24T09:19:01;13.00;97.70
47779;DHT22;33538;48.432;11.350;2023-04-24T09:21:33;13.00;97.50
47779;DHT22;33538;48.432;11.350;2023-04-24T09:24:02;13.00;97.60
47779;DHT22;33538;48.432;11.350;2023-04-24T09:26:29;13.00;97.60
47779;DHT22;33538;48.432;11.350;2023-04-24T09:28:56;13.00;97.50
47779;DHT22;33538;48.432;11.350;2023-04-24T09:31:23;13.00;97.30
47779;DHT22;33538;48.432;11.350;2023-04-24T09:33:54;13.00;97.20
47779;DHT22;33538;48.432;11.350;2023-04-24T09:36:27;13.00;97.30
47779;DHT22;33538;48.432;11.350;2023-04-24T09:38:59;13.10;97.20
47779;DHT22;33538;48.432;11.350;2023-04-24T09:41:26;13.10;97.20
47779;DHT22;33538;48.432;11.350;2023-04-24T09:43:54;13.10;97.20
47779;DHT22;33538;48.432;11.350;2023-04-24T09:46:21;13.00;97.20
47779;DHT22;33538;48.432;11.350;2023-04-24T09:48:55;13.10;97.10
47779;DHT22;33538;48.432;11.350;2023-04-24T09:51:33;13.10;97.00
47779;DHT22;33538;48.432;11.350;2023-04-24T09:54:03;13.10;97.00
47779;DHT22;33538;48.432;11.350;2023-04-24T09:56:32;13.10;96.90
47779;DHT22;33538;48.432;11.350;2023-04-24T09:59:04;13.10;96.60
47779;DHT22;33538;48.432;11.350;2023-04-24T10:01:31;13.10;96.60
47779;DHT22;33538;48.432;11.350;2023-04-24T10:03:58;13.10;96.50
47779;DHT22;33538;48.432;11.350;2023-04-24T10:06:31;13.10;96.40
47779;DHT22;33538;48.432;11.350;2023-04-24T10:08:58;13.10;96.40
47779;DHT22;33538;48.432;11.350;2023-04-24T10:11:27;13.10;96.40
47779;DHT22;33538;48.432;11.350;2023-04-24T10:13:54;13.10;96.20
47779;DHT22;33538;48.432;11.350;2023-04-24T10:16:21;13.10;96.10
47779;DHT22;33538;48.432;11.350;2023-04-24T10:18:49;13.10;96.10
47779;DHT22;33538;48.432;11.350;2023-04-24T10:21:16;13.10;96.10
47779;DHT22;33538;48.432;11.350;2023-04-24T10:23:43;13.20;96.10
47779;DHT22;33538;48.432;11.350;2023-04-24T10:26:12;13.20;96.20
47779;DHT22;33538;48.432;11.350;2023-04-24T10:28:41;13.20;96.10
47779;DHT22;33538;48.432;11.350;2023-04-24T10:31:09;13.20;96.10
47779;DHT22;33538;48.432;11.350;2023-04-24T10:33:37;13.20;96.10
47779;DHT22;33538;48.432;11.350;2023-04-24T10:36:05;13.20;96.10
47779;DHT22;33538;48.432;11.350;2023-04-24T10:38:32;13.20;96.10
47779;DHT22;33538;48.432;11.350;2023-04-24T10:41:07;13.20;95.90
47779;DHT22;33538;48.432;11.350;2023-04-24T10:43:35;13.20;96.10
47779;DHT22;33538;48.432;11.350;2023-04-24T10:46:04;13.30;96.10
47779;DHT22;33538;48.432;11.350;2023-04-24T10:48:33;13.20;96.10
47779;DHT22;33538;48.432;11.350;2023-04-24T10:50:59;13.20;96.10
47779;DHT22;33538;48.432;11.350;2023-04-24T10:53:28;13.20;96.20
47779;DHT22;33538;48.432;11.350;2023-04-24T10:55:58;13.20;96.60
47779;DHT22;33538;48.432;11.350;2023-04-24T10:58:38;13.20;96.40
47779;DHT22;33538;48.432;11.350;2023-04-24T11:01:06;13.10;96.50
47779;DHT22;33538;48.432;11.350;2023-04-24T11:03:34;13.10;96.70
47779;DHT22;33538;48.432;11.350;2023-04-24T11:06:03;13.10;96.90
47779;DHT22;33538;48.432;11.350;2023-04-24T11:08:33;13.10;96.90
47779;DHT22;33538;48.432;11.350;2023-04-24T11:11:08;13.10;96.80
47779;DHT22;33538;48.432;11.350;2023-04-24T11:14:03;13.10;96.70
47779;DHT22;33538;48.432;11.350;2023-04-24T11:16:32;13.10;96.70
47779;DHT22;33538;48.432;11.350;2023-04-24T11:19:04;13.10;96.80
47779;DHT22;33538;48.432;11.350;2023-04-24T11:21:32;13.20;96.80
47779;DHT22;33538;48.432;11.350;2023-04-24T11:23:59;13.10;97.30
47779;DHT22;33538;48.432;11.350;2023-04-24T11:26:45;13.10;96.90
47779;DHT22;33538;48.432;11.350;2023-04-24T11:29:12;13.10;96.90
47779;DHT22;33538;48.432;11.350;2023-04-24T11:31:41;13.10;96.90
47779;DHT22;33538;48.432;11.350;2023-04-24T11:34:12;13.20;96.90
47779;DHT22;33538;48.432;11.350;2023-04-24T11:36:40;13.10;96.90
47779;DHT22;33538;48.432;11.350;2023-04-24T11:39:08;13.20;96.90
47779;DHT22;33538;48.432;11.350;2023-04-24T11:41:35;13.20;97.00
47779;DHT22;33538;48.432;11.350;2023-04-24T11:44:03;13.20;97.00
47779;DHT22;33538;48.432;11.350;2023-04-24T11:46:32;13.20;97.00
47779;DHT22;33538;48.432;11.350;2023-04-24T11:49:00;13.20;97.10
47779;DHT22;33538;48.432;11.350;2023-04-24T11:51:27;13.20;97.20
47779;DHT22;33538;48.432;11.350;2023-04-24T11:54:07;13.20;97.10
47779;DHT22;33538;48.432;11.350;2023-04-24T11:56:34;13.20;97.10
47779;DHT22;33538;48.432;11.350;2023-04-24T11:59:04;13.30;97.30
47779;DHT22;33538;48.432;11.350;2023-04-24T12:01:42;13.30;97.30
47779;DHT22;33538;48.432;11.350;2023-04-24T12:04:11;13.30;97.30
47779;DHT22;33538;48.432;11.350;2023-04-24T12:06:38;13.30;97.30
47779;DHT22;33538;48.432;11.350;2023-04-24T12:09:05;13.30;97.40
47779;DHT22;33538;48.432;11.350;2023-04-24T12:11:52;13.30;97.40
47779;DHT22;33538;48.432;11.350;2023-04-24T12:14:19;13.30;97.40
47779;DHT22;33538;48.432;11.350;2023-04-24T12:16:47;13.30;97.40
47779;DHT22;33538;48.432;11.350;2023-04-24T12:19:20;13.30;97.40
47779;DHT22;33538;48.432;11.350;2023-04-24T12:21:59;13.30;97.40
47779;DHT22;33538;48.432;11.350;2023-04-24T12:24:26;13.30;97.30
47779;DHT22;33538;48.432;11.350;2023-04-24T12:26:53;13.30;97.30
47779;DHT22;33538;48.432;11.350;2023-04-24T12:29:20;13.30;97.20
47779;DHT22;33538;48.432;11.350;2023-04-24T12:31:46;13.30;97.20
47779;DHT22;33538;48.432;11.350;2023-04-24T12:34:19;13.30;97.20
47779;DHT22;33538;48.432;11.350;2023-04-24T12:36:46;13.30;97.00
47779;DHT22;33538;48.432;11.350;2023-04-24T12:39:15;13.40;96.90
47779;DHT22;33538;48.432;11.350;2023-04-24T12:41:50;13.40;96.80
47779;DHT22;33538;48.432;11.350;2023-04-24T12:44:28;13.30;96.60
47779;DHT22;33538;48.432;11.350;2023-04-24T12:46:55;13.30;96.20
47779;DHT22;33538;48.432;11.350;2023-04-24T12:49:23;13.30;96.30
47779;DHT22;33538;48.432;11.350;2023-04-24T12:51:50;13.30;96.00
47779;DHT22;33538;48.432;11.350;2023-04-24T12:54:17;13.30;95.90
47779;DHT22;33538;48.432;11.350;2023-04-24T12:56:44;13.30;95.90
47779;DHT22;33538;48.432;11.350;2023-04-24T12:59:10;13.30;95.80
47779;DHT22;33538;48.432;11.350;2023-04-24T13:01:37;13.30;95.70
47779;DHT22;33538;48.432;11.350;2023-04-24T13:04:05;13.30;95.60
47779;DHT22;33538;48.432;11.350;2023-04-24T13:06:33;13.40;95.70
47779;DHT22;33538;48.432;11.350;2023-04-24T13:09:00;13.40;95.60
47779;DHT22;33538;48.432;11.350;2023-04-24T13:11:26;13.40;95.70
47779;DHT22;33538;48.432;11.350;2023-04-24T13:13:54;13.40;95.50
47779;DHT22;33538;48.432;11.350;2023-04-24T13:16:21;13.40;95.80
47779;DHT22;33538;48.432;11.350;2023-04-24T13:18:47;13.50;95.30
47779;DHT22;33538;48.432;11.350;2023-04-24T13:21:14;13.50;95.30
47779;DHT22;33538;48.432;11.350;2023-04-24T13:23:42;13.50;95.30
47779;DHT22;33538;48.432;11.350;2023-04-24T13:26:09;13.50;95.20
47779;DHT22;33538;48.432;11.350;2023-04-24T13:28:36;13.50;95.10
47779;DHT22;33538;48.432;11.350;2023-04-24T13:31:03;13.50;95.00
47779;DHT22;33538;48.432;11.350;2023-04-24T13:33:30;13.50;94.60
47779;DHT22;33538;48.432;11.350;2023-04-24T13:35:57;13.50;94.70
47779;DHT22;33538;48.432;11.350;2023-04-24T13:38:23;13.50;94.70
47779;DHT22;33538;48.432;11.350;2023-04-24T13:40:52;13.50;94.20
47779;DHT22;33538;48.432;11.350;2023-04-24T13:43:18;13.50;93.80
47779;DHT22;33538;48.432;11.350;2023-04-24T13:45:45;13.50;94.00
47779;DHT22;33538;48.432;11.350;2023-04-24T13:48:12;13.50;94.00
47779;DHT22;33538;48.432;11.350;2023-04-24T13:50:39;13.50;94.10
47779;DHT22;33538;48.432;11.350;2023-04-24T13:53:05;13.50;93.50
47779;DHT22;33538;48.432;11.350;2023-04-24T13:55:32;13.50;91.90
47779;DHT22;33538;48.432;11.350;2023-04-24T13:58:00;13.60;92.40
47779;DHT22;33538;48.432;11.350;2023-04-24T14:00:27;13.50;92.50
47779;DHT22;33538;48.432;11.350;2023-04-24T14:02:54;13.60;93.10
47779;DHT22;33538;48.432;11.350;2023-04-24T14:05:21;13.60;92.10
47779;DHT22;33538;48.432;11.350;2023-04-24T14:07:48;13.60;90.90
47779;DHT22;33538;48.432;11.350;2023-04-24T14:10:14;13.70;86.80
47779;DHT22;33538;48.432;11.350;2023-04-24T14:12:41;13.70;90.10
47779;DHT22;33538;48.432;11.350;2023-04-24T14:15:10;13.60;90.50
47779;DHT22;33538;48.432;11.350;2023-04-24T14:17:37;13.60;91.10
47779;DHT22;33538;48.432;11.350;2023-04-24T14:20:05;13.60;90.10
47779;DHT22;33538;48.432;11.350;2023-04-24T14:22:32;13.60;90.70
47779;DHT22;33538;48.432;11.350;2023-04-24T14:24:59;13.60;90.80
47779;DHT22;33538;48.432;11.350;2023-04-24T14:27:25;13.50;90.70
47779;DHT22;33538;48.432;11.350;2023-04-24T14:29:52;13.50;90.20
47779;DHT22;33538;48.432;11.350;2023-04-24T14:32:20;13.50;90.00
47779;DHT22;33538;48.432;11.350;2023-04-24T14:34:47;13.50;90.30
47779;DHT22;33538;48.432;11.350;2023-04-24T14:37:14;13.50;90.20
47779;DHT22;33538;48.432;11.350;2023-04-24T14:39:40;13.50;90.10
47779;DHT22;33538;48.432;11.350;2023-04-24T14:42:08;13.50;89.80
47779;DHT22;33538;48.432;11.350;2023-04-24T14:44:35;13.50;89.00
47779;DHT22;33538;48.432;11.350;2023-04-24T14:47:02;13.50;89.30
47779;DHT22;33538;48.432;11.350;2023-04-24T14:49:31;13.50;88.90
47779;DHT22;33538;48.432;11.350;2023-04-24T14:51:58;13.50;89.10
47779;DHT22;33538;48.432;11.350;2023-04-24T14:54:25;13.50;88.50
47779;DHT22;33538;48.432;11.350;2023-04-24T14:56:51;13.50;86.30
47779;DHT22;33538;48.432;11.350;2023-04-24T14:59:18;13.50;86.00
47779;DHT22;33538;48.432;11.350;2023-04-24T15:01:45;13.50;86.20
47779;DHT22;33538;48.432;11.350;2023-04-24T15:04:11;13.50;86.30
47779;DHT22;33538;48.432;11.350;2023-04-24T15:06:40;13.50;87.00
47779;DHT22;33538;48.432;11.350;2023-04-24T15:09:06;13.50;87.20
47779;DHT22;33538;48.432;11.350;2023-04-24T15:11:33;13.50;87.90
47779;DHT22;33538;48.432;11.350;2023-04-24T15:14:00;13.50;88.50
47779;DHT22;33538;48.432;11.350;2023-04-24T15:16:27;13.50;89.00
47779;DHT22;33538;48.432;11.350;2023-04-24T15:18:54;13.60;89.20